This is the latest recevied weather packets stored in our database for station/object 9M4GEK-3. If no packets are shown the sender has not sent any weather packets the latest 10 day(s).
| Time | Temp. | Humidity | Pressure | Rain* | Wind** | Luminosity | Snow |
|---|---|---|---|---|---|---|---|
| 1777691986 | 41.67° C | 40% | 1009.4 hPa | - | - | - | - |
| 1777691086 | 40° C | 42% | 1009.4 hPa | - | - | - | - |
| 1777690185 | 39.44° C | 43% | 1009.4 hPa | - | - | - | - |
| 1777689285 | 40° C | 43% | 1009.5 hPa | - | - | - | - |
| 1777671648 | 25.56° C | 79% | 1006.8 hPa | - | - | - | - |
| 1777670747 | 25.56° C | 79% | 1006.9 hPa | - | - | - | - |
| 1777669847 | 25.56° C | 79% | 1006.8 hPa | - | - | - | - |
| 1777668947 | 25.56° C | 79% | 1006.9 hPa | - | - | - | - |
| 1777667147 | 26.11° C | 79% | 1006.8 hPa | - | - | - | - |
| 1777665480 | 25.56° C | 78% | 1007.1 hPa | - | - | - | - |
| 1777665347 | 25.56° C | 78% | 1007.1 hPa | - | - | - | - |
| 1777663546 | 25.56° C | 78% | 1007.5 hPa | - | - | - | - |
| 1777661793 | 25.56° C | 79% | 1007.8 hPa | - | - | - | - |
| 1777661746 | 25.56° C | 79% | 1007.8 hPa | - | - | - | - |
| 1777659979 | 25.56° C | 79% | 1008.1 hPa | - | - | - | - |
| 1777659945 | 25.56° C | 79% | 1008.1 hPa | - | - | - | - |
| 1777659046 | 25.56° C | 78% | 1008.1 hPa | - | - | - | - |
| 1777657245 | 25.56° C | 77% | 1008.5 hPa | - | - | - | - |
| 1777655446 | 26.11° C | 75% | 1008.6 hPa | - | - | - | - |
| 1777652745 | 26.11° C | 75% | 1008.9 hPa | - | - | - | - |
| 1777651844 | 26.11° C | 74% | 1008.9 hPa | - | - | - | - |
| 1777650944 | 26.67° C | 74% | 1008.8 hPa | - | - | - | - |
| 1777650043 | 26.67° C | 75% | 1008.9 hPa | - | - | - | - |
| 1777649196 | 26.67° C | 74% | 1008.9 hPa | - | - | - | - |
| 1777649143 | 26.67° C | 74% | 1008.9 hPa | - | - | - | - |
* Rain since midnight (hover to see other rain measurements)
** Current wind speed in m/s (hover to see current wind gust speed)